createdAt,value
2016-09-30T00:00:35.709Z,0
2016-09-30T00:01:35.159Z,0
2016-09-30T00:02:35.098Z,0
2016-09-30T00:03:35.562Z,0
2016-09-30T00:04:35.287Z,0
2016-09-30T00:05:35.441Z,0
2016-09-30T00:06:35.113Z,0
2016-09-30T00:07:35.151Z,0
2016-09-30T00:08:35.019Z,0
2016-09-30T00:09:34.755Z,0
2016-09-30T00:10:35.229Z,0
2016-09-30T00:11:35.367Z,0
2016-09-30T00:12:34.823Z,0
2016-09-30T00:13:35.296Z,0
2016-09-30T00:14:34.725Z,0
2016-09-30T00:15:34.727Z,0
2016-09-30T00:16:35.724Z,0
2016-09-30T00:17:34.904Z,0
2016-09-30T00:18:35.035Z,0
2016-09-30T00:19:34.770Z,0
2016-09-30T00:20:34.436Z,0
2016-09-30T00:21:34.686Z,0
2016-09-30T00:22:34.568Z,0
2016-09-30T00:23:34.389Z,0
2016-09-30T00:24:34.216Z,0
2016-09-30T00:25:34.516Z,0
2016-09-30T00:26:34.256Z,0
2016-09-30T00:27:33.599Z,0
2016-09-30T00:28:34.093Z,0
2016-09-30T00:29:34.280Z,0
2016-09-30T00:30:33.440Z,0
2016-09-30T00:31:33.722Z,0
2016-09-30T00:32:33.680Z,0
2016-09-30T00:33:34.300Z,0
2016-09-30T00:34:33.612Z,0
2016-09-30T00:35:33.824Z,0
2016-09-30T00:36:34.091Z,0
2016-09-30T00:37:33.730Z,0
2016-09-30T00:38:33.956Z,0
2016-09-30T00:39:33.653Z,0
2016-09-30T00:40:34.012Z,0
2016-09-30T00:41:33.812Z,0
2016-09-30T00:42:33.181Z,0
2016-09-30T00:43:33.439Z,0
2016-09-30T00:44:33.363Z,0
2016-09-30T00:45:33.361Z,0
2016-09-30T00:46:33.266Z,0
2016-09-30T00:47:33.618Z,0
2016-09-30T00:48:33.384Z,0
2016-09-30T00:49:32.727Z,0
2016-09-30T00:50:33.181Z,0
2016-09-30T00:51:33.327Z,0
2016-09-30T00:52:32.882Z,0
2016-09-30T00:53:32.840Z,0
2016-09-30T00:54:33.102Z,0
2016-09-30T00:55:32.943Z,0
2016-09-30T00:56:33.029Z,0
2016-09-30T00:57:33.153Z,0
2016-09-30T00:58:33.111Z,0
2016-09-30T00:59:32.778Z,0
2016-09-30T01:00:32.803Z,0
2016-09-30T01:01:32.650Z,0
2016-09-30T01:02:32.837Z,0
2016-09-30T01:03:32.537Z,0
2016-09-30T01:04:32.108Z,0
2016-09-30T01:05:33.059Z,0
2016-09-30T01:06:32.538Z,0
2016-09-30T01:07:32.692Z,0
2016-09-30T01:08:32.255Z,0
2016-09-30T01:09:32.297Z,0
2016-09-30T01:10:31.833Z,0
2016-09-30T01:11:31.809Z,0
2016-09-30T01:12:31.715Z,0
2016-09-30T01:13:31.760Z,0
2016-09-30T01:14:32.434Z,0
2016-09-30T01:15:31.988Z,0
2016-09-30T01:16:31.410Z,0
2016-09-30T01:17:31.346Z,0
2016-09-30T01:18:31.800Z,0
2016-09-30T01:19:31.722Z,0
2016-09-30T01:20:31.646Z,0
2016-09-30T01:21:31.552Z,0
2016-09-30T01:22:31.139Z,0
2016-09-30T01:23:31.605Z,0
2016-09-30T01:24:31.704Z,0
2016-09-30T01:25:31.339Z,0
2016-09-30T01:26:31.259Z,0
2016-09-30T01:27:31.397Z,0
2016-09-30T01:28:31.510Z,0
2016-09-30T01:29:30.914Z,0
2016-09-30T01:30:31.794Z,0
2016-09-30T01:31:30.814Z,0
2016-09-30T01:32:31.291Z,0
2016-09-30T01:33:30.921Z,0
2016-09-30T01:34:30.980Z,0
2016-09-30T01:35:31.113Z,0
2016-09-30T01:36:30.740Z,0
2016-09-30T01:37:30.205Z,0
2016-09-30T01:38:30.508Z,0
2016-09-30T01:39:30.632Z,0
2016-09-30T01:40:30.662Z,0
2016-09-30T01:41:30.576Z,0
2016-09-30T01:42:30.764Z,0
2016-09-30T01:43:30.738Z,0
2016-09-30T01:44:30.169Z,0
2016-09-30T01:45:30.639Z,0
2016-09-30T01:46:30.040Z,0
2016-09-30T01:47:30.433Z,0
2016-09-30T01:48:29.679Z,0
2016-09-30T01:49:29.946Z,0
2016-09-30T01:50:30.077Z,0
2016-09-30T01:51:29.930Z,0
2016-09-30T01:52:30.011Z,0
2016-09-30T01:53:30.066Z,0
2016-09-30T01:54:29.894Z,0
2016-09-30T01:55:29.991Z,0
2016-09-30T01:56:29.596Z,0
2016-09-30T01:57:29.559Z,0
2016-09-30T01:58:29.906Z,0
2016-09-30T01:59:29.732Z,0
2016-09-30T02:00:29.406Z,0
2016-09-30T02:01:29.677Z,0
2016-09-30T02:02:29.567Z,0
2016-09-30T02:03:29.577Z,0
2016-09-30T02:04:29.297Z,0
2016-09-30T02:05:29.181Z,0
2016-09-30T02:06:29.108Z,0
2016-09-30T02:07:29.247Z,0
2016-09-30T02:08:29.385Z,0
2016-09-30T02:09:29.050Z,0
2016-09-30T02:10:29.420Z,0
2016-09-30T02:11:29.102Z,0
2016-09-30T02:12:29.166Z,0
2016-09-30T02:13:28.831Z,0
2016-09-30T02:14:29.055Z,0
2016-09-30T02:15:28.684Z,0
2016-09-30T02:16:28.975Z,0
2016-09-30T02:17:28.988Z,0
2016-09-30T02:18:28.541Z,0
2016-09-30T02:19:28.483Z,0
2016-09-30T02:20:28.747Z,0
2016-09-30T02:21:28.692Z,0
2016-09-30T02:22:28.626Z,0
2016-09-30T02:23:28.602Z,0
2016-09-30T02:24:28.414Z,0
2016-09-30T02:25:28.569Z,0
2016-09-30T02:26:28.505Z,0
2016-09-30T02:27:28.401Z,0
2016-09-30T02:28:28.249Z,0
2016-09-30T02:29:27.728Z,0
2016-09-30T02:30:27.966Z,0
2016-09-30T02:31:28.295Z,0
2016-09-30T02:32:27.555Z,0
2016-09-30T02:33:28.017Z,0
2016-09-30T02:34:27.998Z,0
2016-09-30T02:35:28.008Z,0
2016-09-30T02:36:27.965Z,0
2016-09-30T02:37:28.120Z,0
2016-09-30T02:38:27.263Z,0
2016-09-30T02:39:27.231Z,0
2016-09-30T02:40:27.466Z,0
2016-09-30T02:41:27.917Z,0
2016-09-30T02:42:27.363Z,0
2016-09-30T02:43:26.946Z,0
2016-09-30T02:44:27.569Z,0
2016-09-30T02:45:27.612Z,0
2016-09-30T02:46:27.087Z,0
2016-09-30T02:47:27.312Z,0
2016-09-30T02:48:27.107Z,0
2016-09-30T02:49:27.328Z,0
2016-09-30T02:50:27.275Z,0
2016-09-30T02:51:27.476Z,0
2016-09-30T02:52:27.449Z,0
2016-09-30T02:53:27.147Z,0
2016-09-30T02:54:26.521Z,0
2016-09-30T02:55:27.047Z,0
2016-09-30T02:56:27.035Z,0
2016-09-30T02:57:26.926Z,0
2016-09-30T02:58:27.340Z,0
2016-09-30T02:59:26.934Z,0
2016-09-30T03:00:26.496Z,0
2016-09-30T03:01:26.848Z,0
2016-09-30T03:02:26.656Z,0
2016-09-30T03:03:26.357Z,0
2016-09-30T03:04:26.322Z,0
2016-09-30T03:05:26.598Z,0
2016-09-30T03:06:25.910Z,0
2016-09-30T03:07:26.523Z,0
2016-09-30T03:08:26.369Z,0
2016-09-30T03:09:26.067Z,0
2016-09-30T03:10:26.008Z,0
2016-09-30T03:11:26.276Z,0
2016-09-30T03:12:25.618Z,0
2016-09-30T03:13:26.212Z,0
2016-09-30T03:14:25.865Z,0
2016-09-30T03:15:26.164Z,0
2016-09-30T03:16:25.420Z,0
2016-09-30T03:17:25.896Z,0
2016-09-30T03:18:25.944Z,0
2016-09-30T03:19:25.279Z,0
2016-09-30T03:20:25.861Z,0
2016-09-30T03:21:25.872Z,0
2016-09-30T03:22:26.386Z,0
2016-09-30T03:23:25.719Z,0
2016-09-30T03:24:25.341Z,0
2016-09-30T03:25:25.612Z,0
2016-09-30T03:26:25.480Z,0
2016-09-30T03:27:25.214Z,0
2016-09-30T03:28:25.138Z,0
2016-09-30T03:29:25.401Z,0
2016-09-30T03:30:25.288Z,0
2016-09-30T03:31:25.064Z,0
2016-09-30T03:32:25.678Z,0
2016-09-30T03:33:24.885Z,0
2016-09-30T03:34:24.871Z,0
2016-09-30T03:35:24.997Z,0
2016-09-30T03:36:24.967Z,0
2016-09-30T03:37:24.594Z,0
2016-09-30T03:38:24.720Z,0
2016-09-30T03:39:24.626Z,0
2016-09-30T03:40:24.570Z,0
2016-09-30T03:41:24.544Z,0
2016-09-30T03:42:24.772Z,0
2016-09-30T03:43:24.727Z,0
2016-09-30T03:44:24.877Z,0
2016-09-30T03:45:24.645Z,0
2016-09-30T03:46:24.593Z,0
2016-09-30T03:47:24.165Z,0
2016-09-30T03:48:24.504Z,0
2016-09-30T03:49:24.644Z,0
2016-09-30T03:50:24.393Z,0
2016-09-30T03:51:23.422Z,0
2016-09-30T03:52:24.331Z,0
2016-09-30T03:53:23.966Z,0
2016-09-30T03:54:23.953Z,0
2016-09-30T03:55:23.538Z,0
2016-09-30T03:56:23.795Z,0
2016-09-30T03:57:23.472Z,0
2016-09-30T03:58:23.400Z,0
2016-09-30T03:59:23.711Z,0
2016-09-30T04:00:23.365Z,0
2016-09-30T04:01:23.814Z,0
2016-09-30T04:02:23.232Z,0
2016-09-30T04:03:23.770Z,0
2016-09-30T04:04:23.401Z,0
2016-09-30T04:05:23.729Z,0
2016-09-30T04:06:23.627Z,0
2016-09-30T04:07:23.576Z,0
2016-09-30T04:08:23.409Z,0
2016-09-30T04:09:23.576Z,0
2016-09-30T04:10:23.318Z,0
2016-09-30T04:11:23.372Z,0
2016-09-30T04:12:22.699Z,0
2016-09-30T04:13:23.492Z,0
2016-09-30T04:14:22.926Z,0
2016-09-30T04:15:23.385Z,0
2016-09-30T04:16:22.871Z,0
2016-09-30T04:17:22.760Z,0
2016-09-30T04:18:22.929Z,0
2016-09-30T04:19:22.672Z,0
2016-09-30T04:20:22.370Z,0
2016-09-30T04:21:21.972Z,0
2016-09-30T04:22:22.801Z,0
2016-09-30T04:23:23.013Z,0
2016-09-30T04:24:22.128Z,0
2016-09-30T04:25:22.599Z,0
2016-09-30T04:26:22.361Z,0
2016-09-30T04:27:22.503Z,0
2016-09-30T04:28:22.547Z,0
2016-09-30T04:29:22.395Z,0
2016-09-30T04:30:22.390Z,0
2016-09-30T04:31:22.300Z,0
2016-09-30T04:32:22.040Z,0
2016-09-30T04:33:22.723Z,0
2016-09-30T04:34:22.315Z,0
2016-09-30T04:35:22.235Z,0
2016-09-30T04:36:22.369Z,0
2016-09-30T04:37:21.824Z,0
2016-09-30T04:38:22.158Z,0
2016-09-30T04:39:21.706Z,0
2016-09-30T04:40:21.685Z,0
2016-09-30T04:41:21.637Z,0
2016-09-30T04:42:22.492Z,0
2016-09-30T04:43:22.036Z,0
2016-09-30T04:44:20.546Z,0
2016-09-30T04:45:22.347Z,0
2016-09-30T04:46:21.815Z,0
2016-09-30T04:47:21.841Z,0
2016-09-30T04:48:21.470Z,0
2016-09-30T04:49:21.546Z,0
2016-09-30T04:50:21.271Z,0
2016-09-30T04:51:21.742Z,0
2016-09-30T04:52:21.823Z,0
2016-09-30T04:53:21.789Z,0
2016-09-30T04:54:21.603Z,0
2016-09-30T04:55:20.956Z,0
2016-09-30T04:56:21.197Z,0
2016-09-30T04:57:20.647Z,0
2016-09-30T04:58:20.781Z,0
2016-09-30T04:59:21.106Z,0
2016-09-30T05:00:21.395Z,0
2016-09-30T05:01:20.240Z,0
2016-09-30T05:02:21.123Z,0
2016-09-30T05:03:20.547Z,0
2016-09-30T05:04:20.515Z,0
2016-09-30T05:05:20.769Z,0
2016-09-30T05:06:20.725Z,0
2016-09-30T05:07:20.554Z,0
2016-09-30T05:08:20.913Z,0
2016-09-30T05:09:19.947Z,0
2016-09-30T05:10:20.103Z,0
2016-09-30T05:11:20.485Z,0
2016-09-30T05:12:20.836Z,0
2016-09-30T05:13:20.253Z,0
2016-09-30T05:14:20.536Z,0
2016-09-30T05:15:20.582Z,0
2016-09-30T05:16:20.453Z,0
2016-09-30T05:17:20.406Z,0
2016-09-30T05:18:20.318Z,0
2016-09-30T05:19:20.103Z,0
2016-09-30T05:20:20.353Z,0
2016-09-30T05:21:19.638Z,0
2016-09-30T05:22:19.549Z,0
2016-09-30T05:23:19.671Z,0
2016-09-30T05:24:19.531Z,0
2016-09-30T05:25:19.885Z,0
2016-09-30T05:26:19.787Z,0
2016-09-30T05:27:19.276Z,0
2016-09-30T05:28:19.762Z,0
2016-09-30T05:29:19.309Z,0
2016-09-30T05:30:19.558Z,0
2016-09-30T05:31:19.929Z,0
2016-09-30T05:32:19.178Z,0
2016-09-30T05:33:19.100Z,0
2016-09-30T05:34:19.145Z,0
2016-09-30T05:35:19.219Z,0
2016-09-30T05:36:18.985Z,0
2016-09-30T05:37:18.794Z,0
2016-09-30T05:38:18.898Z,0
2016-09-30T05:39:18.916Z,0
2016-09-30T05:40:18.686Z,0
2016-09-30T05:41:18.724Z,0
2016-09-30T05:42:19.207Z,0
2016-09-30T05:43:18.556Z,0
2016-09-30T05:44:19.077Z,0
2016-09-30T05:45:18.730Z,0
2016-09-30T05:46:18.452Z,0
2016-09-30T05:47:18.733Z,5
2016-09-30T05:48:18.907Z,5
2016-09-30T05:49:18.232Z,5
2016-09-30T05:50:18.590Z,5
2016-09-30T05:51:18.582Z,5
2016-09-30T05:52:18.476Z,5
2016-09-30T05:53:18.808Z,5
2016-09-30T05:54:18.097Z,5
2016-09-30T05:55:18.583Z,5
2016-09-30T05:56:18.297Z,5
2016-09-30T05:57:17.935Z,5
2016-09-30T05:58:17.890Z,5
2016-09-30T05:59:18.350Z,5
2016-09-30T06:00:18.144Z,5
2016-09-30T06:01:17.328Z,5
2016-09-30T06:02:17.928Z,10
2016-09-30T06:03:18.170Z,10
2016-09-30T06:04:18.094Z,10
2016-09-30T06:05:17.898Z,10
2016-09-30T06:06:17.713Z,10
2016-09-30T06:07:17.374Z,10
2016-09-30T06:08:17.597Z,10
2016-09-30T06:09:17.073Z,10
2016-09-30T06:10:17.863Z,10
2016-09-30T06:11:17.556Z,15
2016-09-30T06:12:17.428Z,15
2016-09-30T06:13:17.684Z,15
2016-09-30T06:14:17.096Z,15
2016-09-30T06:15:16.752Z,15
2016-09-30T06:16:17.030Z,15
2016-09-30T06:17:17.483Z,20
2016-09-30T06:18:16.933Z,20
2016-09-30T06:19:17.090Z,20
2016-09-30T06:20:16.802Z,20
2016-09-30T06:21:16.773Z,20
2016-09-30T06:22:16.148Z,20
2016-09-30T06:23:16.883Z,20
2016-09-30T06:24:16.942Z,20
2016-09-30T06:25:16.262Z,20
2016-09-30T06:26:16.836Z,20
2016-09-30T06:27:16.793Z,20
2016-09-30T06:28:16.650Z,20
2016-09-30T06:29:16.886Z,20
2016-09-30T06:30:16.551Z,20
2016-09-30T06:31:16.991Z,20
2016-09-30T06:32:16.835Z,20
2016-09-30T06:33:16.585Z,20
2016-09-30T06:34:16.381Z,25
2016-09-30T06:35:16.403Z,25
2016-09-30T06:36:16.400Z,20
2016-09-30T06:37:16.320Z,20
2016-09-30T06:38:16.031Z,20
2016-09-30T06:39:16.189Z,20
2016-09-30T06:40:17.048Z,20
2016-09-30T06:41:16.023Z,20
2016-09-30T06:42:15.629Z,20
2016-09-30T06:43:15.731Z,20
2016-09-30T06:44:15.848Z,20
2016-09-30T06:45:15.744Z,20
2016-09-30T06:46:15.803Z,20
2016-09-30T06:47:15.813Z,20
2016-09-30T06:48:15.641Z,20
2016-09-30T06:49:15.423Z,20
2016-09-30T06:50:15.933Z,20
2016-09-30T06:51:15.000Z,20
2016-09-30T06:52:15.849Z,20
2016-09-30T06:53:15.280Z,20
2016-09-30T06:54:15.178Z,20
2016-09-30T06:55:15.167Z,20
2016-09-30T06:56:15.413Z,20
2016-09-30T06:57:14.721Z,20
2016-09-30T06:58:15.008Z,20
2016-09-30T06:59:15.130Z,20
2016-09-30T07:00:15.621Z,20
2016-09-30T07:01:15.139Z,20
2016-09-30T07:02:15.478Z,20
2016-09-30T07:03:15.137Z,20
2016-09-30T07:04:14.689Z,20
2016-09-30T07:05:14.936Z,25
2016-09-30T07:06:15.087Z,25
2016-09-30T07:07:14.563Z,30
2016-09-30T07:08:15.603Z,30
2016-09-30T07:09:14.198Z,30
2016-09-30T07:10:14.623Z,30
2016-09-30T07:11:14.308Z,30
2016-09-30T07:12:14.309Z,20
2016-09-30T07:13:14.357Z,20
2016-09-30T07:14:13.911Z,20
2016-09-30T07:15:14.473Z,20
2016-09-30T07:16:14.111Z,25
2016-09-30T07:17:14.456Z,25
2016-09-30T07:18:13.770Z,25
2016-09-30T07:19:14.121Z,25
2016-09-30T07:20:14.437Z,25
2016-09-30T07:21:13.911Z,25
2016-09-30T07:22:14.119Z,25
2016-09-30T07:23:14.125Z,25
2016-09-30T07:24:13.640Z,25
2016-09-30T07:25:14.515Z,25
2016-09-30T07:26:13.932Z,25
2016-09-30T07:27:13.284Z,25
2016-09-30T07:28:13.617Z,25
2016-09-30T07:29:13.884Z,25
2016-09-30T07:30:13.178Z,25
2016-09-30T07:31:13.092Z,25
2016-09-30T07:32:13.780Z,25
2016-09-30T07:33:14.506Z,25
2016-09-30T07:34:16.935Z,25
2016-09-30T07:35:13.591Z,25
2016-09-30T07:36:13.272Z,25
2016-09-30T07:37:13.901Z,25
2016-09-30T07:38:13.090Z,25
2016-09-30T07:39:13.074Z,25
2016-09-30T07:40:13.004Z,25
2016-09-30T07:41:13.450Z,25
2016-09-30T07:42:12.717Z,25
2016-09-30T07:43:13.174Z,25
2016-09-30T07:44:13.111Z,25
2016-09-30T07:45:12.667Z,25
2016-09-30T07:46:13.129Z,25
2016-09-30T07:47:12.341Z,25
2016-09-30T07:48:12.317Z,25
2016-09-30T07:49:13.105Z,30
2016-09-30T07:50:12.687Z,30
2016-09-30T07:51:13.064Z,30
2016-09-30T07:52:13.174Z,30
2016-09-30T07:53:12.666Z,30
2016-09-30T07:54:12.693Z,30
2016-09-30T07:55:11.979Z,35
2016-09-30T07:56:12.723Z,35
2016-09-30T07:57:12.578Z,35
2016-09-30T07:58:11.848Z,35
2016-09-30T07:59:12.614Z,35
2016-09-30T08:00:12.043Z,35
2016-09-30T08:01:11.758Z,35
2016-09-30T08:02:11.916Z,35
2016-09-30T08:03:11.961Z,35
2016-09-30T08:04:12.310Z,40
2016-09-30T08:05:11.947Z,40
2016-09-30T08:06:12.031Z,40
2016-09-30T08:07:11.731Z,35
2016-09-30T08:08:11.968Z,35
2016-09-30T08:09:12.235Z,35
2016-09-30T08:10:11.777Z,35
2016-09-30T08:11:11.871Z,35
2016-09-30T08:12:11.472Z,40
2016-09-30T08:13:11.506Z,35
2016-09-30T08:14:11.388Z,40
2016-09-30T08:15:11.075Z,40
2016-09-30T08:16:11.328Z,40
2016-09-30T08:17:10.924Z,40
2016-09-30T08:18:11.596Z,40
2016-09-30T08:19:11.452Z,40
2016-09-30T08:20:11.988Z,40
2016-09-30T08:21:11.323Z,40
2016-09-30T08:22:11.165Z,40
2016-09-30T08:23:10.956Z,40
2016-09-30T08:24:11.462Z,40
2016-09-30T08:25:10.897Z,40
2016-09-30T08:26:10.484Z,40
2016-09-30T08:27:10.725Z,45
2016-09-30T08:28:10.675Z,45
2016-09-30T08:29:10.748Z,45
2016-09-30T08:30:10.596Z,45
2016-09-30T08:31:10.720Z,45
2016-09-30T08:32:10.897Z,45
2016-09-30T08:33:10.383Z,45
2016-09-30T08:34:10.791Z,45
2016-09-30T08:35:10.470Z,40
2016-09-30T08:36:11.084Z,40
2016-09-30T08:37:10.312Z,40
2016-09-30T08:38:10.517Z,40
2016-09-30T08:39:10.067Z,40
2016-09-30T08:40:10.447Z,45
2016-09-30T08:41:10.017Z,45
2016-09-30T08:42:09.959Z,45
2016-09-30T08:43:09.450Z,45
2016-09-30T08:44:10.643Z,45
2016-09-30T08:45:09.906Z,45
2016-09-30T08:46:09.568Z,45
2016-09-30T08:47:10.114Z,45
2016-09-30T08:48:11.330Z,45
2016-09-30T08:49:09.774Z,45
2016-09-30T08:50:10.503Z,50
2016-09-30T08:51:10.126Z,50
2016-09-30T08:52:09.914Z,50
2016-09-30T08:53:09.658Z,50
2016-09-30T08:54:09.489Z,50
2016-09-30T08:55:09.516Z,50
2016-09-30T08:56:09.691Z,50
2016-09-30T08:57:09.685Z,50
2016-09-30T08:58:09.598Z,50
2016-09-30T08:59:09.843Z,45
2016-09-30T09:00:09.568Z,45
2016-09-30T09:01:08.997Z,45
2016-09-30T09:02:09.300Z,45
2016-09-30T09:03:09.400Z,50
2016-09-30T09:04:08.778Z,45
2016-09-30T09:05:08.772Z,50
2016-09-30T09:06:08.660Z,50
2016-09-30T09:07:09.212Z,50
2016-09-30T09:08:09.346Z,50
2016-09-30T09:09:12.071Z,50
2016-09-30T09:10:09.249Z,50
2016-09-30T09:11:08.793Z,50
2016-09-30T09:12:09.206Z,50
2016-09-30T09:13:08.559Z,50
2016-09-30T09:14:08.848Z,55
2016-09-30T09:15:08.231Z,55
2016-09-30T09:16:08.821Z,60
2016-09-30T09:17:08.649Z,65
2016-09-30T09:18:08.317Z,70
2016-09-30T09:19:08.715Z,65
2016-09-30T09:20:08.707Z,70
2016-09-30T09:21:08.257Z,70
2016-09-30T09:22:08.175Z,75
2016-09-30T09:23:08.613Z,75
2016-09-30T09:24:08.314Z,75
2016-09-30T09:25:08.099Z,75
2016-09-30T09:26:08.567Z,80
2016-09-30T09:27:08.293Z,75
2016-09-30T09:28:08.385Z,80
2016-09-30T09:29:08.116Z,80
2016-09-30T09:30:08.544Z,80
2016-09-30T09:31:08.473Z,75
2016-09-30T09:32:08.029Z,80
2016-09-30T09:33:07.471Z,80
2016-09-30T09:34:07.943Z,95
2016-09-30T09:35:07.599Z,80
2016-09-30T09:36:08.074Z,70
2016-09-30T09:37:08.041Z,130
2016-09-30T09:38:07.567Z,80
2016-09-30T09:39:07.259Z,60
2016-09-30T09:40:07.723Z,60
2016-09-30T09:41:07.499Z,60
2016-09-30T09:42:07.753Z,60
2016-09-30T09:43:07.787Z,55
2016-09-30T09:44:07.489Z,55
2016-09-30T09:45:07.433Z,55
2016-09-30T09:46:07.442Z,55
2016-09-30T09:47:06.983Z,50
2016-09-30T09:48:07.280Z,50
2016-09-30T09:49:07.116Z,50
2016-09-30T09:50:07.438Z,50
2016-09-30T09:51:07.659Z,50
2016-09-30T09:52:06.750Z,50
2016-09-30T09:53:07.913Z,50
2016-09-30T09:54:07.312Z,50
2016-09-30T09:55:06.751Z,50
2016-09-30T09:56:06.931Z,50
2016-09-30T09:57:06.621Z,55
2016-09-30T09:58:06.844Z,55
2016-09-30T09:59:06.842Z,55
2016-09-30T10:00:06.855Z,55
2016-09-30T10:01:06.372Z,50
2016-09-30T10:02:06.915Z,50
2016-09-30T10:03:06.812Z,50
2016-09-30T10:04:06.095Z,55
2016-09-30T10:05:06.283Z,55
2016-09-30T10:06:06.710Z,60
2016-09-30T10:07:06.099Z,65
2016-09-30T10:08:06.473Z,65
2016-09-30T10:09:06.467Z,70
2016-09-30T10:10:06.009Z,75
2016-09-30T10:11:05.927Z,85
2016-09-30T10:12:05.842Z,85
2016-09-30T10:13:06.372Z,95
2016-09-30T10:14:06.258Z,100
2016-09-30T10:15:05.864Z,110
2016-09-30T10:16:05.370Z,105
2016-09-30T10:17:05.347Z,105
2016-09-30T10:18:06.028Z,100
2016-09-30T10:19:06.171Z,95
2016-09-30T10:20:05.490Z,95
2016-09-30T10:21:05.665Z,95
2016-09-30T10:22:05.409Z,95
2016-09-30T10:23:05.520Z,75
2016-09-30T10:24:05.957Z,65
2016-09-30T10:25:05.834Z,65
2016-09-30T10:26:05.389Z,60
2016-09-30T10:27:05.132Z,55
2016-09-30T10:28:05.067Z,50
2016-09-30T10:29:04.692Z,50
2016-09-30T10:30:04.878Z,50
2016-09-30T10:31:05.269Z,50
2016-09-30T10:32:04.612Z,50
2016-09-30T10:33:05.287Z,50
2016-09-30T10:34:04.306Z,45
2016-09-30T10:35:04.761Z,50
2016-09-30T10:36:04.692Z,45
2016-09-30T10:37:04.748Z,40
2016-09-30T10:38:05.017Z,35
2016-09-30T10:39:04.370Z,35
2016-09-30T10:40:04.243Z,30
2016-09-30T10:41:04.448Z,35
2016-09-30T10:42:04.636Z,40
2016-09-30T10:43:05.115Z,40
2016-09-30T10:44:04.539Z,40
2016-09-30T10:45:04.291Z,40
2016-09-30T10:46:04.365Z,45
2016-09-30T10:47:04.124Z,40
2016-09-30T10:48:04.453Z,35
2016-09-30T10:49:03.853Z,35
2016-09-30T10:50:04.546Z,40
2016-09-30T10:51:03.707Z,40
2016-09-30T10:52:04.420Z,50
2016-09-30T10:53:03.813Z,50
2016-09-30T10:54:03.638Z,55
2016-09-30T10:55:03.581Z,55
2016-09-30T10:56:03.445Z,55
2016-09-30T10:57:04.213Z,55
2016-09-30T10:58:03.939Z,60
2016-09-30T10:59:03.819Z,55
2016-09-30T11:00:03.351Z,55
2016-09-30T11:01:03.909Z,55
2016-09-30T11:02:03.561Z,60
2016-09-30T11:03:03.496Z,55
2016-09-30T11:04:03.908Z,50
2016-09-30T11:05:03.339Z,50
2016-09-30T11:06:02.892Z,50
2016-09-30T11:07:03.970Z,50
2016-09-30T11:08:04.098Z,50
2016-09-30T11:09:03.796Z,50
2016-09-30T11:10:03.692Z,50
2016-09-30T11:11:03.436Z,55
2016-09-30T11:12:03.365Z,55
2016-09-30T11:13:02.755Z,60
2016-09-30T11:14:03.137Z,60
2016-09-30T11:15:03.387Z,60
2016-09-30T11:16:02.727Z,60
2016-09-30T11:17:02.803Z,60
2016-09-30T11:18:02.718Z,60
2016-09-30T11:19:02.791Z,60
2016-09-30T11:20:03.114Z,60
2016-09-30T11:21:02.026Z,60
2016-09-30T11:22:02.741Z,55
2016-09-30T11:23:02.269Z,55
2016-09-30T11:24:02.161Z,60
2016-09-30T11:25:03.078Z,60
2016-09-30T11:26:02.848Z,60
2016-09-30T11:27:02.306Z,60
2016-09-30T11:28:02.267Z,65
2016-09-30T11:29:02.529Z,65
2016-09-30T11:30:01.871Z,65
2016-09-30T11:31:02.126Z,65
2016-09-30T11:32:02.460Z,60
2016-09-30T11:33:01.713Z,60
2016-09-30T11:34:02.487Z,60
2016-09-30T11:35:01.623Z,60
2016-09-30T11:36:02.200Z,60
2016-09-30T11:37:01.953Z,60
2016-09-30T11:38:01.856Z,55
2016-09-30T11:39:01.813Z,55
2016-09-30T11:40:02.004Z,55
2016-09-30T11:41:01.384Z,55
2016-09-30T11:42:02.250Z,65
2016-09-30T11:43:01.354Z,60
2016-09-30T11:44:01.857Z,65
2016-09-30T11:45:01.207Z,65
2016-09-30T11:46:01.987Z,65
2016-09-30T11:47:01.687Z,60
2016-09-30T11:48:01.086Z,60
2016-09-30T11:49:15.956Z,55
2016-09-30T11:50:01.706Z,50
2016-09-30T11:51:01.160Z,50
2016-09-30T11:52:01.127Z,40
2016-09-30T11:53:01.204Z,35
2016-09-30T11:54:01.339Z,30
2016-09-30T11:55:00.738Z,35
2016-09-30T11:56:01.322Z,35
2016-09-30T11:57:01.279Z,45
2016-09-30T11:58:01.279Z,50
2016-09-30T11:59:01.370Z,55
2016-09-30T12:00:00.799Z,60
2016-09-30T12:01:01.569Z,60
2016-09-30T12:02:01.067Z,65
2016-09-30T12:03:00.792Z,60
2016-09-30T12:04:00.654Z,60
2016-09-30T12:05:00.928Z,60
2016-09-30T12:06:00.880Z,60
2016-09-30T12:07:00.831Z,60
2016-09-30T12:08:00.774Z,60
2016-09-30T12:09:00.797Z,60
2016-09-30T12:10:01.027Z,60
2016-09-30T12:11:00.764Z,60
2016-09-30T12:12:00.405Z,65
2016-09-30T12:13:00.322Z,65
2016-09-30T12:14:00.691Z,65
2016-09-30T12:15:00.105Z,65
2016-09-30T12:16:00.019Z,65
2016-09-30T12:17:00.483Z,65
2016-09-30T12:18:00.073Z,65
2016-09-30T12:19:00.244Z,70
2016-09-30T12:19:59.462Z,75
2016-09-30T12:21:00.366Z,70
2016-09-30T12:22:00.014Z,70
2016-09-30T12:22:59.561Z,65
2016-09-30T12:24:00.046Z,65
2016-09-30T12:24:59.813Z,70
2016-09-30T12:26:00.570Z,65
2016-09-30T12:26:59.816Z,70
2016-09-30T12:28:00.003Z,70
2016-09-30T12:29:00.017Z,70
2016-09-30T12:29:59.105Z,70
2016-09-30T12:31:00.152Z,70
2016-09-30T12:31:59.762Z,70
2016-09-30T12:32:59.553Z,70
2016-09-30T12:33:59.280Z,70
2016-09-30T12:34:59.665Z,70
2016-09-30T12:35:59.648Z,70
2016-09-30T12:36:59.113Z,75
2016-09-30T12:37:59.521Z,70
2016-09-30T12:38:59.332Z,65
2016-09-30T12:39:59.502Z,65
2016-09-30T12:40:59.214Z,60
2016-09-30T12:41:59.438Z,60
2016-09-30T12:42:59.193Z,60
2016-09-30T12:43:59.835Z,65
2016-09-30T12:44:59.104Z,60
2016-09-30T12:45:58.791Z,60
2016-09-30T12:46:59.210Z,55
2016-09-30T12:47:58.743Z,55
2016-09-30T12:48:59.335Z,55
2016-09-30T12:49:58.687Z,55
2016-09-30T12:50:58.422Z,55
2016-09-30T12:51:58.621Z,60
2016-09-30T12:52:58.351Z,65
2016-09-30T12:53:58.921Z,60
2016-09-30T12:54:58.233Z,55
2016-09-30T12:55:58.495Z,55
2016-09-30T12:56:58.547Z,55
2016-09-30T12:57:58.112Z,75
2016-09-30T12:58:57.870Z,65
2016-09-30T12:59:58.107Z,55
2016-09-30T13:00:58.345Z,55
2016-09-30T13:01:57.971Z,55
2016-09-30T13:02:57.919Z,55
2016-09-30T13:03:58.201Z,55
2016-09-30T13:04:57.521Z,55
2016-09-30T13:05:57.744Z,55
2016-09-30T13:06:57.893Z,55
2016-09-30T13:07:57.683Z,60
2016-09-30T13:08:57.916Z,45
2016-09-30T13:09:57.635Z,45
2016-09-30T13:10:57.372Z,45
2016-09-30T13:11:57.803Z,85
2016-09-30T13:12:57.608Z,70
2016-09-30T13:13:57.084Z,65
2016-09-30T13:14:57.308Z,90
2016-09-30T13:15:57.267Z,75
2016-09-30T13:16:57.229Z,60
2016-09-30T13:17:57.716Z,45
2016-09-30T13:18:57.331Z,40
2016-09-30T13:19:57.663Z,40
2016-09-30T13:20:57.264Z,40
2016-09-30T13:21:57.420Z,50
2016-09-30T13:22:57.060Z,50
2016-09-30T13:23:56.940Z,60
2016-09-30T13:24:56.869Z,55
2016-09-30T13:25:57.380Z,70
2016-09-30T13:26:57.358Z,60
2016-09-30T13:27:57.512Z,65
2016-09-30T13:28:57.187Z,85
2016-09-30T13:29:56.560Z,90
2016-09-30T13:30:56.804Z,85
2016-09-30T13:31:56.600Z,85
2016-09-30T13:32:56.805Z,85
2016-09-30T13:33:57.012Z,85
2016-09-30T13:34:56.405Z,90
2016-09-30T13:35:56.809Z,85
2016-09-30T13:36:56.365Z,85
2016-09-30T13:37:56.937Z,85
2016-09-30T13:38:56.633Z,95
2016-09-30T13:39:56.218Z,95
2016-09-30T13:40:56.199Z,95
2016-09-30T13:41:56.093Z,90
2016-09-30T13:42:56.040Z,90
2016-09-30T13:43:55.933Z,90
2016-09-30T13:44:56.163Z,85
2016-09-30T13:45:56.088Z,85
2016-09-30T13:46:55.851Z,80
2016-09-30T13:47:55.831Z,80
2016-09-30T13:48:55.978Z,80
2016-09-30T13:49:56.084Z,60
2016-09-30T13:50:56.029Z,75
2016-09-30T13:51:55.925Z,80
2016-09-30T13:52:55.646Z,80
2016-09-30T13:53:55.539Z,85
2016-09-30T13:54:55.827Z,85
2016-09-30T13:55:55.744Z,85
2016-09-30T13:56:55.314Z,50
2016-09-30T13:57:55.538Z,75
2016-09-30T13:58:54.991Z,55
2016-09-30T13:59:55.562Z,80
2016-09-30T14:00:55.402Z,85
2016-09-30T14:01:55.677Z,95
2016-09-30T14:02:55.408Z,60
2016-09-30T14:03:55.097Z,55
2016-09-30T14:04:55.325Z,75
2016-09-30T14:05:55.274Z,85
2016-09-30T14:06:55.433Z,75
2016-09-30T14:07:55.082Z,60
2016-09-30T14:08:55.352Z,70
2016-09-30T14:09:55.157Z,75
2016-09-30T14:10:54.671Z,75
2016-09-30T14:11:54.960Z,75
2016-09-30T14:12:55.004Z,70
2016-09-30T14:13:55.015Z,70
2016-09-30T14:14:54.333Z,70
2016-09-30T14:15:54.577Z,70
2016-09-30T14:16:54.755Z,70
2016-09-30T14:17:55.119Z,70
2016-09-30T14:18:55.129Z,70
2016-09-30T14:19:54.558Z,75
2016-09-30T14:20:54.275Z,75
2016-09-30T14:21:54.160Z,75
2016-09-30T14:22:54.101Z,70
2016-09-30T14:23:55.052Z,70
2016-09-30T14:24:54.409Z,70
2016-09-30T14:25:54.679Z,60
2016-09-30T14:26:55.865Z,45
2016-09-30T14:27:54.876Z,45